Aalborg, Denmark

9:25 PM CET op 25 februari 2017 (GMT +0100)
Aalborg | | Change Station

Hoogte 0 ft 57.07 °N, 9.91 °E | Updated 5 minutes ago

Light Rain
Lichte regen
40.1 °F
Voelt als 36 °F
N
6.2
Wind Variabel Wind van west
Gusts 13.7 mijl/u

Vandaag
Hoog -- | Laag -- °F
--% Kans op neerslag
Gisteren
Hoog -- | Laag -- °F
Precip. -- inches
Druk 29.47 inches
Zicht 5.0 mijlen
Wolken Licht bewolkt 700 ft
Merendeels bewolkt 1100 ft
Gevoelstemperatuur 36 °F
Dauwpunt 40 °F
Vochtigheid 100%
Neerslag Niet beschikbaar.
Dikte sneeuw Niet beschikbaar.
7:23 AM 5:44 PM
Afnemende halvemaan, 1% visible
METAR EKYT 252020Z 23018KT 8000 -RA SCT007 BKN011 06/05 Q0998
Druk 29.47 inches
Zicht 5.0 mijlen
Wolken Licht bewolkt 700 ft
Merendeels bewolkt 1100 ft
Gevoelstemperatuur 36 °F
Dauwpunt 40 °F
Vochtigheid 100%
Neerslag Niet beschikbaar.
Dikte sneeuw Niet beschikbaar.
7:23 AM 5:44 PM
Afnemende halvemaan, 1% visible
METAR EKYT 252020Z 23018KT 8000 -RA SCT007 BKN011 06/05 Q0998

Get Your Daily Forecast Email!

Thanks for signing up!

Be on the lookout for a verification email in your inbox.

You'll start receiving the daily forecast at 8 AM.

×

10-Day Weather Forecast

×

Almanac

Astronomie

Feb. 25, 2017 Opkomst Ondergang
Werkelijke tijd
Burgerlijke schemering
Nautische schemering
Astronomische schemering
Maan
Golflengte van het zichtbare licht
Daglengte
Tomorrow will be .
, % of the Moon is Illuminated

Extremen vandaag

Country Highs Country Lows

Community

WunderPhotos

Upload Photos

1,962,540 foto’s ge-upload!

WunderBlog® & News

Nearby

Luchtkwaliteit

  Luchtkwaliteit LK-index Verontreinigende stof
Not available.

Dikte sneeuw

Station Depth Geometrische hoogte

Aardbevingen

Stad Distance Mag. Time & Date
Minimum magnitude displayed is 2.5.

Watertemperatuur langs de kust

Plaats Temperatuur

Stations

Nabije weerstations

Locatie station Temp. Gevoelstemperatuur Dauwpunt Vochtigheid Wind Precip. Hoogte Geactualiseerd Type